createdAt,value
2022-12-28T00:01:45.343Z,3.27
2022-12-28T00:04:18.151Z,3.30
2022-12-28T00:06:47.290Z,3.33
2022-12-28T00:09:14.678Z,3.27
2022-12-28T00:11:41.692Z,3.27
2022-12-28T00:14:08.859Z,3.30
2022-12-28T00:16:39.923Z,3.30
2022-12-28T00:19:13.808Z,3.27
2022-12-28T00:21:42.398Z,3.37
2022-12-28T00:24:23.804Z,3.30
2022-12-28T00:26:52.279Z,3.30
2022-12-28T00:29:19.954Z,3.33
2022-12-28T00:31:47.489Z,3.30
2022-12-28T00:34:15.189Z,3.30
2022-12-28T00:37:08.572Z,3.33
2022-12-28T00:39:29.797Z,3.30
2022-12-28T00:41:57.266Z,3.23
2022-12-28T00:44:25.335Z,3.30
2022-12-28T00:46:52.336Z,3.30
2022-12-28T00:49:19.820Z,3.30
2022-12-28T00:51:46.986Z,3.30
2022-12-28T00:54:14.538Z,3.23
2022-12-28T00:56:46.143Z,3.23
2022-12-28T00:59:14.941Z,3.30
2022-12-28T01:01:42.285Z,3.20
2022-12-28T01:04:10.039Z,3.20
2022-12-28T01:06:37.502Z,3.30
2022-12-28T01:09:04.716Z,3.20
2022-12-28T01:11:32.472Z,3.23
2022-12-28T01:14:02.691Z,3.23
2022-12-28T01:16:36.528Z,3.27
2022-12-28T01:19:07.299Z,3.27
2022-12-28T01:21:37.014Z,3.30
2022-12-28T01:24:08.515Z,3.30
2022-12-28T01:26:36.376Z,3.30
2022-12-28T01:29:04.025Z,3.27
2022-12-28T01:31:33.285Z,3.30
2022-12-28T01:34:01.398Z,3.23
2022-12-28T01:36:32.942Z,3.17
2022-12-28T01:39:04.376Z,3.27
2022-12-28T01:41:37.257Z,3.17
2022-12-28T01:44:04.983Z,3.20
2022-12-28T01:46:44.188Z,3.20
2022-12-28T01:49:37.184Z,3.10
2022-12-28T01:52:42.339Z,3.20
2022-12-28T01:55:42.526Z,3.20
2022-12-28T01:58:21.731Z,3.20
2022-12-28T02:00:49.028Z,3.13
2022-12-28T02:03:27.968Z,3.17
2022-12-28T02:06:02.131Z,3.17
2022-12-28T02:08:58.564Z,3.20
2022-12-28T02:11:31.927Z,3.10
2022-12-28T02:14:00.072Z,3.13
2022-12-28T02:16:28.654Z,3.20
2022-12-28T02:18:56.256Z,3.13
2022-12-28T02:21:46.427Z,3.10
2022-12-28T02:25:18.934Z,3.20
2022-12-28T02:28:17.054Z,3.20
2022-12-28T02:30:59.680Z,3.20
2022-12-28T02:33:55.088Z,3.17
2022-12-28T02:36:33.743Z,3.20
2022-12-28T02:39:09.656Z,3.10
2022-12-28T02:41:40.109Z,3.20
2022-12-28T02:44:07.877Z,3.10
2022-12-28T02:46:54.135Z,3.10
2022-12-28T02:49:46.532Z,3.17
2022-12-28T02:52:52.343Z,3.17
2022-12-28T02:56:07.378Z,3.20
2022-12-28T02:58:44.616Z,3.20
2022-12-28T03:02:08.482Z,3.20
2022-12-28T03:05:06.029Z,3.20
2022-12-28T03:08:19.756Z,3.20
2022-12-28T03:11:17.472Z,3.20
2022-12-28T03:14:03.250Z,3.20
2022-12-28T03:17:04.258Z,3.20
2022-12-28T03:19:59.616Z,3.20
2022-12-28T03:22:49.312Z,3.20
2022-12-28T03:25:42.104Z,3.23
2022-12-28T03:28:36.037Z,3.20
2022-12-28T03:31:14.642Z,3.20
2022-12-28T03:34:06.385Z,3.20
2022-12-28T03:37:25.571Z,3.20
2022-12-28T03:40:27.809Z,3.20
2022-12-28T03:43:23.200Z,3.20
2022-12-28T03:46:06.006Z,3.17
2022-12-28T03:48:37.381Z,3.27
2022-12-28T03:51:05.114Z,3.27
2022-12-28T03:53:45.390Z,3.17
2022-12-28T03:56:20.848Z,3.20
2022-12-28T03:58:49.724Z,3.20
2022-12-28T04:01:20.368Z,3.17
2022-12-28T04:03:48.775Z,3.20
2022-12-28T04:06:19.218Z,3.20
2022-12-28T04:08:47.454Z,3.13
2022-12-28T04:11:15.329Z,3.20
2022-12-28T04:13:46.898Z,3.20
2022-12-28T04:16:16.395Z,3.17
2022-12-28T04:18:45.139Z,3.17
2022-12-28T04:21:15.865Z,3.17
2022-12-28T04:23:45.354Z,3.17
2022-12-28T04:26:19.071Z,3.13
2022-12-28T04:28:49.122Z,3.10
2022-12-28T04:31:36.497Z,3.20
2022-12-28T04:34:07.548Z,3.13
2022-12-28T04:36:39.703Z,3.20
2022-12-28T04:39:11.952Z,3.17
2022-12-28T04:41:40.105Z,3.20
2022-12-28T04:44:07.509Z,3.17
2022-12-28T04:46:34.658Z,3.20
2022-12-28T04:49:02.239Z,3.17
2022-12-28T04:51:30.352Z,3.17
2022-12-28T04:53:58.522Z,3.13
2022-12-28T04:56:27.579Z,3.17
2022-12-28T04:59:00.665Z,3.17
2022-12-28T05:01:28.656Z,3.17
2022-12-28T05:03:59.669Z,3.20
2022-12-28T05:06:28.230Z,3.13
2022-12-28T05:08:57.690Z,3.20
2022-12-28T05:11:29.032Z,3.13
2022-12-28T05:13:56.997Z,3.10
2022-12-28T05:16:27.966Z,3.17
2022-12-28T05:18:57.407Z,3.10
2022-12-28T05:21:28.094Z,3.10
2022-12-28T05:23:56.767Z,3.10
2022-12-28T05:26:29.296Z,3.10
2022-12-28T05:28:58.479Z,3.03
2022-12-28T05:31:26.611Z,3.10
2022-12-28T05:33:54.933Z,3.10
2022-12-28T05:36:26.321Z,3.10
2022-12-28T05:38:56.575Z,3.10
2022-12-28T05:41:28.326Z,3.10
2022-12-28T05:43:58.330Z,3.07
2022-12-28T05:46:30.793Z,3.10
2022-12-28T05:48:58.603Z,3.00
2022-12-28T05:51:30.980Z,3.00
2022-12-28T05:54:00.813Z,3.00
2022-12-28T05:56:30.663Z,3.07
2022-12-28T05:59:05.187Z,3.10
2022-12-28T06:01:38.353Z,3.03
2022-12-28T06:04:14.325Z,3.07
2022-12-28T06:06:41.856Z,3.10
2022-12-28T06:09:08.960Z,3.10
2022-12-28T06:11:36.364Z,3.03
2022-12-28T06:14:05.697Z,3.07
2022-12-28T06:16:38.058Z,3.07
2022-12-28T06:19:11.759Z,3.00
2022-12-28T06:21:41.267Z,3.00
2022-12-28T06:24:10.438Z,3.03
2022-12-28T06:26:40.526Z,3.03
2022-12-28T06:29:08.118Z,3.03
2022-12-28T06:31:40.401Z,3.10
2022-12-28T06:34:10.694Z,3.10
2022-12-28T06:36:42.452Z,3.10
2022-12-28T06:39:14.701Z,3.10
2022-12-28T06:41:42.239Z,3.10
2022-12-28T06:44:12.843Z,3.10
2022-12-28T06:46:40.801Z,3.10
2022-12-28T06:49:08.192Z,3.10
2022-12-28T06:51:41.827Z,3.10
2022-12-28T06:54:10.881Z,3.10
2022-12-28T06:56:39.218Z,3.20
2022-12-28T06:59:07.059Z,3.10
2022-12-28T07:01:39.509Z,3.10
2022-12-28T07:04:09.761Z,3.10
2022-12-28T07:06:44.253Z,3.17
2022-12-28T07:09:16.808Z,3.10
2022-12-28T07:11:45.365Z,3.10
2022-12-28T07:14:12.597Z,3.10
2022-12-28T07:19:05.658Z,3.10
2022-12-28T07:21:39.398Z,3.13
2022-12-28T07:24:07.893Z,3.13
2022-12-28T07:26:37.682Z,3.20
2022-12-28T07:29:08.011Z,3.03
2022-12-28T07:31:44.831Z,3.10
2022-12-28T07:34:15.218Z,3.13
2022-12-28T07:36:43.617Z,3.10
2022-12-28T07:39:10.693Z,3.10
2022-12-28T07:41:38.167Z,3.10
2022-12-28T07:44:10.278Z,3.10
2022-12-28T07:46:38.358Z,3.07
2022-12-28T07:49:06.026Z,3.10
2022-12-28T07:51:37.637Z,3.10
2022-12-28T07:54:06.422Z,3.10
2022-12-28T07:59:04.836Z,3.00
2022-12-28T08:01:35.164Z,3.10
2022-12-28T08:04:07.040Z,3.00
2022-12-28T08:06:39.154Z,3.10
2022-12-28T08:09:10.481Z,3.10
2022-12-28T08:11:42.323Z,3.00
2022-12-28T08:14:11.118Z,3.00
2022-12-28T08:16:42.522Z,3.17
2022-12-28T08:19:10.275Z,3.07
2022-12-28T08:21:43.975Z,3.00
2022-12-28T08:24:20.204Z,3.07
2022-12-28T08:26:48.814Z,3.10
2022-12-28T08:29:22.114Z,3.00
2022-12-28T08:31:49.899Z,3.00
2022-12-28T08:34:27.099Z,2.97
2022-12-28T08:36:55.905Z,2.90
2022-12-28T08:39:23.316Z,3.00
2022-12-28T08:41:50.316Z,2.90
2022-12-28T08:44:17.709Z,3.00
2022-12-28T08:46:45.349Z,3.00
2022-12-28T08:49:12.591Z,2.97
2022-12-28T08:51:42.347Z,3.00
2022-12-28T08:54:12.154Z,3.00
2022-12-28T08:56:42.634Z,3.03
2022-12-28T08:59:14.038Z,3.07
2022-12-28T09:04:00.720Z,3.00
2022-12-28T09:06:38.600Z,2.93
2022-12-28T09:09:14.589Z,3.00
2022-12-28T09:11:42.734Z,2.93
2022-12-28T09:14:20.309Z,2.90
2022-12-28T09:16:50.625Z,2.90
2022-12-28T09:19:18.398Z,2.93
2022-12-28T09:21:48.823Z,2.90
2022-12-28T09:24:16.484Z,3.00
2022-12-28T09:26:44.224Z,2.90
2022-12-28T09:29:13.925Z,3.00
2022-12-28T09:31:41.860Z,2.90
2022-12-28T09:37:00.908Z,2.90
2022-12-28T09:39:28.880Z,2.93
2022-12-28T09:42:02.458Z,2.90
2022-12-28T09:44:59.481Z,2.90
2022-12-28T09:47:47.123Z,2.90
2022-12-28T09:50:17.323Z,2.87
2022-12-28T09:53:26.676Z,2.90
2022-12-28T09:56:37.353Z,2.87
2022-12-28T09:59:07.410Z,2.87
2022-12-28T10:01:40.175Z,2.87
2022-12-28T10:04:08.149Z,2.90
2022-12-28T10:06:37.023Z,2.87
2022-12-28T10:09:19.741Z,2.83
2022-12-28T10:11:46.965Z,2.90
2022-12-28T10:14:30.081Z,2.80
2022-12-28T10:16:57.699Z,2.87
2022-12-28T10:19:28.615Z,2.77
2022-12-28T10:22:16.661Z,2.80
2022-12-28T10:24:45.390Z,2.70
2022-12-28T10:27:29.454Z,2.77
2022-12-28T10:30:02.145Z,2.63
2022-12-28T10:33:02.197Z,2.80
2022-12-28T10:35:49.507Z,2.70
2022-12-28T10:38:29.615Z,2.70
2022-12-28T10:41:17.106Z,2.80
2022-12-28T10:44:21.477Z,2.90
2022-12-28T10:47:05.935Z,2.90
2022-12-28T10:50:18.534Z,2.73
2022-12-28T10:52:39.295Z,2.80
2022-12-28T10:55:33.256Z,2.73
2022-12-28T10:58:36.116Z,2.80
2022-12-28T11:01:24.417Z,2.90
2022-12-28T11:04:16.829Z,2.70
2022-12-28T11:07:00.611Z,2.90
2022-12-28T11:09:35.185Z,2.80
2022-12-28T11:12:28.859Z,2.80
2022-12-28T11:14:56.198Z,3.00
2022-12-28T11:17:27.856Z,2.77
2022-12-28T11:20:04.860Z,2.90
2022-12-28T11:22:33.834Z,2.90
2022-12-28T11:25:02.091Z,2.90
2022-12-28T11:27:29.822Z,2.90
2022-12-28T11:29:58.234Z,2.80
2022-12-28T11:32:36.144Z,2.90
2022-12-28T11:35:04.564Z,2.80
2022-12-28T11:37:31.966Z,2.87
2022-12-28T11:40:00.425Z,2.80
2022-12-28T11:42:40.000Z,2.77
2022-12-28T11:45:16.212Z,2.80
2022-12-28T11:47:43.639Z,2.80
2022-12-28T11:50:33.550Z,2.83
2022-12-28T11:53:07.814Z,2.87
2022-12-28T11:55:58.905Z,2.80
2022-12-28T11:59:00.476Z,2.77
2022-12-28T12:01:27.378Z,2.90
2022-12-28T12:03:57.314Z,2.87
2022-12-28T12:06:48.009Z,2.80
2022-12-28T12:09:40.136Z,2.90
2022-12-28T12:12:18.462Z,2.70
2022-12-28T12:15:14.853Z,2.80
2022-12-28T12:17:55.631Z,2.77
2022-12-28T12:21:05.389Z,2.80
2022-12-28T12:23:52.884Z,2.83
2022-12-28T12:26:50.160Z,2.70
2022-12-28T12:29:42.229Z,2.80
2022-12-28T12:32:40.196Z,2.70
2022-12-28T12:35:17.488Z,2.70
2022-12-28T12:38:08.000Z,2.67
2022-12-28T12:41:21.954Z,2.70
2022-12-28T12:45:13.174Z,2.70
2022-12-28T12:48:14.155Z,2.80
2022-12-28T12:51:25.267Z,2.70
2022-12-28T12:54:12.895Z,2.80
2022-12-28T12:56:59.341Z,2.70
2022-12-28T13:00:12.156Z,2.90
2022-12-28T13:03:42.541Z,2.70
2022-12-28T13:06:25.555Z,2.80
2022-12-28T13:09:05.991Z,2.60
2022-12-28T13:11:38.562Z,2.80
2022-12-28T13:14:07.130Z,2.90
2022-12-28T13:16:34.975Z,2.70
2022-12-28T13:19:14.566Z,2.80
2022-12-28T13:21:50.716Z,2.60
2022-12-28T13:24:35.362Z,2.70
2022-12-28T13:27:20.256Z,2.60
2022-12-28T13:29:54.842Z,2.63
2022-12-28T13:32:38.276Z,2.80
2022-12-28T13:35:24.992Z,2.70
2022-12-28T13:38:16.727Z,2.60
2022-12-28T13:40:59.287Z,2.70
2022-12-28T13:44:38.094Z,2.80
2022-12-28T13:47:17.960Z,2.70
2022-12-28T13:50:07.022Z,2.80
2022-12-28T13:52:53.127Z,2.80
2022-12-28T13:55:29.494Z,2.60
2022-12-28T13:58:04.012Z,2.70
2022-12-28T14:00:34.498Z,2.77
2022-12-28T14:03:07.788Z,2.67
2022-12-28T14:05:35.366Z,2.63
2022-12-28T14:08:07.007Z,2.70
2022-12-28T14:10:34.607Z,2.70
2022-12-28T14:13:03.882Z,2.70
2022-12-28T14:15:38.982Z,2.70
2022-12-28T14:18:10.191Z,2.63
2022-12-28T14:20:52.595Z,2.63
2022-12-28T14:23:29.004Z,2.70
2022-12-28T14:26:00.821Z,2.63
2022-12-28T14:28:54.603Z,2.77
2022-12-28T14:31:32.731Z,2.73
2022-12-28T14:34:04.863Z,2.80
2022-12-28T14:36:42.070Z,2.70
2022-12-28T14:39:34.627Z,2.70
2022-12-28T14:42:06.515Z,2.70
2022-12-28T14:44:40.265Z,2.70
2022-12-28T14:47:47.510Z,2.60
2022-12-28T14:50:21.620Z,2.80
2022-12-28T14:52:51.160Z,2.63
2022-12-28T14:55:28.369Z,2.70
2022-12-28T14:58:06.615Z,2.67
2022-12-28T15:00:37.064Z,2.80
2022-12-28T15:03:21.603Z,2.70
2022-12-28T15:05:52.938Z,2.83
2022-12-28T15:08:22.483Z,2.73
2022-12-28T15:11:10.133Z,2.77
2022-12-28T15:13:37.112Z,2.70
2022-12-28T15:16:04.706Z,2.77
2022-12-28T15:18:33.182Z,2.80
2022-12-28T15:21:05.734Z,2.70
2022-12-28T15:23:34.125Z,2.80
2022-12-28T15:26:08.665Z,2.80
2022-12-28T15:28:36.629Z,2.80
2022-12-28T15:31:15.852Z,2.80
2022-12-28T15:33:42.907Z,2.80
2022-12-28T15:36:18.350Z,2.83
2022-12-28T15:38:49.557Z,2.80
2022-12-28T15:41:36.958Z,2.83
2022-12-28T15:44:05.377Z,2.70
2022-12-28T15:46:33.155Z,2.70
2022-12-28T15:49:02.780Z,2.83
2022-12-28T15:51:29.773Z,2.90
2022-12-28T15:53:57.199Z,2.80
2022-12-28T15:56:30.441Z,2.80
2022-12-28T15:59:00.682Z,2.67
2022-12-28T16:01:31.331Z,2.70
2022-12-28T16:04:01.974Z,2.80
2022-12-28T16:06:35.946Z,2.70
2022-12-28T16:09:06.914Z,2.70
2022-12-28T16:11:35.088Z,2.83
2022-12-28T16:14:06.196Z,2.67
2022-12-28T16:16:40.520Z,2.77
2022-12-28T16:19:14.000Z,2.70
2022-12-28T16:21:41.917Z,2.80
2022-12-28T16:24:10.023Z,2.70
2022-12-28T16:26:38.305Z,2.73
2022-12-28T16:29:05.858Z,2.73
2022-12-28T16:31:37.777Z,2.77
2022-12-28T16:34:15.956Z,2.70
2022-12-28T16:36:46.959Z,2.80
2022-12-28T16:39:17.787Z,2.70
2022-12-28T16:41:45.432Z,2.80
2022-12-28T16:44:19.031Z,2.67
2022-12-28T16:46:47.491Z,2.70
2022-12-28T16:49:15.140Z,2.70
2022-12-28T16:51:45.675Z,2.73
2022-12-28T16:54:17.887Z,2.80
2022-12-28T16:56:46.992Z,2.70
2022-12-28T16:59:25.383Z,2.70
2022-12-28T17:01:55.782Z,2.70
2022-12-28T17:04:23.668Z,2.77
2022-12-28T17:06:52.135Z,2.70
2022-12-28T17:09:21.014Z,2.63
2022-12-28T17:11:50.564Z,2.70
2022-12-28T17:14:36.005Z,2.73
2022-12-28T17:17:06.403Z,2.73
2022-12-28T17:19:34.524Z,2.77
2022-12-28T17:22:02.204Z,2.70
2022-12-28T17:24:29.698Z,2.80
2022-12-28T17:26:59.267Z,2.80
2022-12-28T17:29:30.976Z,2.90
2022-12-28T17:31:58.501Z,2.80
2022-12-28T17:34:25.836Z,2.70
2022-12-28T17:36:53.215Z,2.80
2022-12-28T17:39:21.154Z,2.80
2022-12-28T17:41:48.585Z,2.80
2022-12-28T17:44:15.599Z,2.80
2022-12-28T17:46:42.664Z,2.80
2022-12-28T17:49:14.713Z,2.80
2022-12-28T17:51:43.344Z,2.87
2022-12-28T17:54:14.600Z,2.77
2022-12-28T17:56:43.729Z,2.77
2022-12-28T17:59:16.602Z,2.73
2022-12-28T18:01:43.958Z,2.77
2022-12-28T18:04:12.216Z,2.80
2022-12-28T18:06:40.355Z,2.83
2022-12-28T18:09:08.074Z,2.77
2022-12-28T18:11:35.619Z,2.90
2022-12-28T18:14:02.914Z,2.80
2022-12-28T18:16:29.971Z,2.80
2022-12-28T18:18:57.472Z,2.80
2022-12-28T18:21:24.975Z,2.80
2022-12-28T18:23:53.149Z,2.90
2022-12-28T18:26:26.649Z,2.90
2022-12-28T18:28:55.884Z,2.87
2022-12-28T18:31:25.641Z,2.87
2022-12-28T18:33:53.454Z,2.90
2022-12-28T18:36:21.128Z,2.90
2022-12-28T18:38:49.733Z,2.90
2022-12-28T18:41:20.717Z,2.90
2022-12-28T18:43:49.277Z,2.83
2022-12-28T18:46:17.570Z,2.87
2022-12-28T18:48:45.229Z,2.90
2022-12-28T18:51:17.295Z,2.90
2022-12-28T18:53:45.857Z,2.90
2022-12-28T18:56:20.898Z,2.93
2022-12-28T18:58:55.644Z,2.80
2022-12-28T19:04:16.877Z,2.83
2022-12-28T19:06:44.711Z,2.90
2022-12-28T19:09:13.192Z,2.90
2022-12-28T19:11:41.130Z,2.90
2022-12-28T19:14:12.977Z,2.93
2022-12-28T19:16:41.357Z,2.90
2022-12-28T19:19:09.503Z,2.90
2022-12-28T19:21:40.759Z,2.90
2022-12-28T19:24:15.838Z,2.87
2022-12-28T19:26:44.573Z,2.90
2022-12-28T19:29:15.259Z,2.80
2022-12-28T19:31:43.099Z,2.87
2022-12-28T19:34:10.826Z,2.90
2022-12-28T19:36:38.245Z,2.87
2022-12-28T19:39:05.823Z,2.83
2022-12-28T19:41:33.394Z,2.87
2022-12-28T19:44:01.390Z,2.80
2022-12-28T19:46:32.303Z,2.80
2022-12-28T19:49:03.263Z,2.77
2022-12-28T19:51:32.921Z,2.80
2022-12-28T19:54:01.818Z,2.90
2022-12-28T19:56:29.196Z,2.83
2022-12-28T19:59:03.407Z,2.80
2022-12-28T20:01:34.688Z,2.87
2022-12-28T20:04:07.176Z,2.87
2022-12-28T20:06:39.232Z,2.80
2022-12-28T20:09:06.204Z,2.80
2022-12-28T20:11:33.676Z,2.80
2022-12-28T20:14:03.693Z,2.80
2022-12-28T20:16:35.008Z,2.90
2022-12-28T20:19:06.677Z,2.80
2022-12-28T20:21:36.073Z,2.80
2022-12-28T20:24:04.624Z,2.80
2022-12-28T20:26:32.669Z,2.80
2022-12-28T20:29:01.649Z,2.80
2022-12-28T20:31:29.781Z,2.80
2022-12-28T20:33:57.056Z,2.80
2022-12-28T20:36:28.936Z,2.83
2022-12-28T20:38:56.858Z,2.80
2022-12-28T20:41:49.426Z,2.90
2022-12-28T20:44:25.447Z,2.87
2022-12-28T20:46:58.113Z,2.83
2022-12-28T20:49:26.930Z,2.83
2022-12-28T20:51:55.263Z,2.83
2022-12-28T20:54:23.760Z,2.80
2022-12-28T20:56:55.173Z,2.87
2022-12-28T20:59:24.919Z,2.80
2022-12-28T21:01:53.181Z,2.80
2022-12-28T21:04:20.713Z,2.80
2022-12-28T21:06:47.708Z,2.80
2022-12-28T21:09:15.125Z,2.80
2022-12-28T21:11:42.526Z,2.87
2022-12-28T21:14:09.689Z,2.80
2022-12-28T21:16:37.169Z,2.80
2022-12-28T21:19:04.773Z,2.87
2022-12-28T21:21:31.751Z,2.80
2022-12-28T21:23:59.202Z,2.80
2022-12-28T21:26:26.197Z,2.83
2022-12-28T21:28:53.682Z,2.80
2022-12-28T21:31:20.766Z,2.80
2022-12-28T21:33:47.790Z,2.83
2022-12-28T21:36:20.009Z,2.87
2022-12-28T21:38:48.858Z,2.90
2022-12-28T21:41:42.251Z,2.77
2022-12-28T21:44:14.154Z,2.80
2022-12-28T21:46:42.559Z,2.80
2022-12-28T21:49:10.327Z,2.80
2022-12-28T21:51:39.156Z,2.83
2022-12-28T21:54:22.032Z,2.87
2022-12-28T21:56:53.955Z,2.80
2022-12-28T21:59:25.866Z,2.80
2022-12-28T22:02:12.372Z,2.80
2022-12-28T22:05:02.437Z,2.90
2022-12-28T22:07:30.777Z,2.90
2022-12-28T22:10:16.568Z,2.90
2022-12-28T22:12:44.061Z,2.80
2022-12-28T22:15:33.454Z,2.90
2022-12-28T22:21:12.571Z,2.80
2022-12-28T22:23:39.548Z,2.80
2022-12-28T22:26:06.724Z,2.80
2022-12-28T22:28:33.771Z,2.80
2022-12-28T22:31:08.544Z,2.80
2022-12-28T22:33:36.091Z,2.80
2022-12-28T22:36:18.880Z,2.80
2022-12-28T22:38:46.877Z,2.87
2022-12-28T22:41:14.191Z,2.83
2022-12-28T22:43:42.181Z,2.80
2022-12-28T22:46:11.951Z,2.80
2022-12-28T22:48:39.391Z,2.80
2022-12-28T22:51:11.034Z,2.83
2022-12-28T22:53:39.648Z,2.80
2022-12-28T22:56:12.388Z,2.90
2022-12-28T22:58:39.892Z,2.80
2022-12-28T23:01:15.072Z,2.80
2022-12-28T23:03:45.734Z,2.87
2022-12-28T23:06:17.140Z,2.80
2022-12-28T23:08:44.574Z,2.80
2022-12-28T23:11:35.208Z,2.80
2022-12-28T23:14:26.057Z,2.80
2022-12-28T23:16:53.673Z,2.73
2022-12-28T23:19:39.618Z,2.80
2022-12-28T23:22:29.092Z,2.83
2022-12-28T23:25:14.901Z,2.80
2022-12-28T23:27:45.020Z,2.80
2022-12-28T23:30:20.897Z,2.77
2022-12-28T23:32:51.743Z,2.77
2022-12-28T23:35:21.137Z,2.77
2022-12-28T23:37:49.097Z,2.73
2022-12-28T23:40:19.813Z,2.70
2022-12-28T23:42:47.495Z,2.73
2022-12-28T23:45:18.419Z,2.80
2022-12-28T23:47:46.333Z,2.80
2022-12-28T23:50:16.660Z,2.80
2022-12-28T23:52:44.138Z,2.80
2022-12-28T23:55:11.945Z,2.70
2022-12-28T23:57:39.456Z,2.70
